Terminal Aerodrome Forecast
Issued by NWS Pocatello, ID

Home | Current Version | Previous Version | Text Only | Print | Product List | Glossary On
Versions: 1 2 3 4 5 6 7 8 9 10 11 12 13 14 15
348
FTUS45 KPIH 280520
TAFPIH
TAF
KPIH 280520Z 2806/2906 18007KT P6SM FEW150
     FM281700 29012G21KT P6SM SKC
     FM290200 20009KT P6SM SKC=

USA.gov is the U.S. government's official web portal to all federal, state and local government web resources and services.